Time;durP1;ratioP1;P1;durP2;ratioP2;P2;SDS_P1;SDS_P2;PMS_P1;PMS_P2;Temp;Humidity;BMP_temperature;BMP_pressure;BME280_temperature;BME280_humidity;BME280_pressure;Samples;Min_cycle;Max_cycle;Signal;HPM_P1;HPM_P2
2022/08/04 00:00:07;;;;;;;6.40;2.20;;;30.40;65.50;;;;;;4956012;29;20431;-75
2022/08/04 00:02:48;;;;;;;6.10;2.00;;;30.40;65.60;;;;;;4939797;29;20451;-76
2022/08/04 00:05:22;;;;;;;4.90;2.30;;;30.40;65.70;;;;;;4921118;29;20435;-76
2022/08/04 00:08:23;;;;;;;3.63;1.90;;;30.40;65.70;;;;;;4954237;28;21022;-75
2022/08/04 00:10:54;;;;;;;4.60;1.87;;;30.40;65.80;;;;;;4952883;29;20479;-76
2022/08/04 00:13:28;;;;;;;3.77;2.13;;;30.30;65.80;;;;;;4955626;28;20458;-75
2022/08/04 00:16:07;;;;;;;6.73;1.87;;;30.30;65.70;;;;;;4950053;29;20435;-75
2022/08/04 00:18:40;;;;;;;3.10;2.13;;;30.30;65.70;;;;;;4942506;29;20542;-75
2022/08/04 00:21:11;;;;;;;2.23;2.00;;;30.30;65.80;;;;;;4936586;29;20852;-76
2022/08/04 00:23:43;;;;;;;2.90;1.50;;;30.20;65.70;;;;;;4936358;29;20424;-75
2022/08/04 00:26:18;;;;;;;5.93;2.10;;;30.20;65.60;;;;;;4936084;29;20432;-76
2022/08/04 00:28:44;;;;;;;3.90;2.20;;;30.20;65.60;;;;;;4963699;28;20842;-75
2022/08/04 00:31:16;;;;;;;2.80;2.00;;;30.20;65.70;;;;;;4955085;29;20475;-76
2022/08/04 00:33:49;;;;;;;3.40;2.07;;;30.20;65.70;;;;;;4953247;28;20446;-76
2022/08/04 00:36:16;;;;;;;3.67;2.10;;;30.20;65.70;;;;;;4970604;28;20439;-75
2022/08/04 00:38:43;;;;;;;2.43;2.00;;;30.20;65.60;;;;;;4935666;29;20474;-75
2022/08/04 00:41:26;;;;;;;4.00;2.20;;;30.10;65.70;;;;;;4951683;29;20814;-75
2022/08/04 00:44:29;;;;;;;3.73;2.00;;;30.10;65.80;;;;;;4970238;28;20446;-76
2022/08/04 00:47:29;;;;;;;4.27;1.93;;;30.10;65.70;;;;;;5021051;23;20596;-76
2022/08/04 00:50:09;;;;;;;3.33;2.00;;;30.10;65.80;;;;;;4920864;29;20424;-76
2022/08/04 00:53:13;;;;;;;2.80;2.07;;;30.10;65.80;;;;;;4936424;29;20534;-76
2022/08/04 00:56:13;;;;;;;3.50;2.00;;;30.10;65.90;;;;;;4905519;29;20432;-76
2022/08/04 00:58:54;;;;;;;3.37;1.93;;;30.00;65.80;;;;;;4936408;29;20428;-76
2022/08/04 01:01:45;;;;;;;3.83;2.00;;;30.00;65.90;;;;;;4936673;29;20812;-76
2022/08/04 01:04:36;;;;;;;8.20;2.17;;;30.00;65.90;;;;;;4939525;29;20462;-75
2022/08/04 01:07:16;;;;;;;2.50;2.00;;;30.00;65.90;;;;;;4955565;29;20438;-75
2022/08/04 01:10:04;;;;;;;5.67;2.23;;;30.00;66.00;;;;;;4955454;29;20466;-76
2022/08/04 01:12:48;;;;;;;3.57;2.10;;;29.90;66.00;;;;;;4955167;28;21006;-76
2022/08/04 01:15:30;;;;;;;3.67;2.10;;;29.90;66.10;;;;;;4955498;29;20447;-76
2022/08/04 01:18:17;;;;;;;2.70;2.10;;;29.90;66.10;;;;;;4955308;29;20423;-76
2022/08/04 01:21:12;;;;;;;3.03;2.10;;;29.90;66.00;;;;;;4939257;28;20870;-76
2022/08/04 01:23:59;;;;;;;3.70;2.10;;;29.90;66.10;;;;;;4922179;29;20939;-76
2022/08/04 01:26:51;;;;;;;2.33;2.00;;;29.80;66.00;;;;;;4971166;28;20435;-76
2022/08/04 01:29:37;;;;;;;4.13;2.43;;;29.80;66.00;;;;;;4949400;29;20502;-76
2022/08/04 01:32:19;;;;;;;3.70;2.10;;;29.80;66.00;;;;;;4970897;28;20900;-75
2022/08/04 01:35:38;;;;;;;3.87;2.00;;;29.80;66.10;;;;;;4955959;28;20411;-76
2022/08/04 01:38:24;;;;;;;3.27;2.10;;;29.80;66.10;;;;;;4913513;28;20427;-76
2022/08/04 01:40:58;;;;;;;3.40;1.93;;;29.80;66.20;;;;;;4946058;28;20459;-76
2022/08/04 01:43:33;;;;;;;3.80;2.10;;;29.70;66.20;;;;;;4936671;29;20905;-76
2022/08/04 01:46:03;;;;;;;4.00;2.00;;;29.70;66.20;;;;;;4950970;29;20486;-76
2022/08/04 01:48:33;;;;;;;2.80;1.80;;;29.70;66.30;;;;;;4936831;29;20443;-76
2022/08/04 01:51:11;;;;;;;3.70;1.80;;;29.70;66.30;;;;;;4935293;29;20456;-76
2022/08/04 01:53:44;;;;;;;6.87;1.90;;;29.70;66.30;;;;;;4935402;29;20454;-76
2022/08/04 01:56:16;;;;;;;4.33;1.90;;;29.60;66.20;;;;;;4939078;29;20920;-76
2022/08/04 01:58:49;;;;;;;7.40;2.00;;;29.60;66.20;;;;;;4954626;29;20431;-76
2022/08/04 02:01:17;;;;;;;3.10;1.70;;;29.60;66.20;;;;;;4938538;29;20447;-75
2022/08/04 02:03:49;;;;;;;3.43;2.03;;;29.60;66.20;;;;;;4938541;29;20432;-76
2022/08/04 02:07:02;;;;;;;3.90;1.77;;;29.60;66.20;;;;;;4954584;29;20407;-75
2022/08/04 02:09:46;;;;;;;4.43;2.00;;;29.60;66.30;;;;;;4937514;28;20472;-76
2022/08/04 02:12:40;;;;;;;5.23;1.87;;;29.60;66.30;;;;;;4955217;28;20509;-76
2022/08/04 02:15:17;;;;;;;3.77;1.60;;;29.50;66.30;;;;;;4955532;29;20440;-76
2022/08/04 02:18:02;;;;;;;5.57;2.10;;;29.50;66.20;;;;;;4954495;29;20452;-76
2022/08/04 02:20:36;;;;;;;7.10;2.17;;;29.50;66.20;;;;;;4955337;28;20428;-76
2022/08/04 02:23:45;;;;;;;4.03;1.87;;;29.50;66.30;;;;;;4955519;28;20445;-76
2022/08/04 02:26:18;;;;;;;3.20;1.70;;;29.50;66.30;;;;;;4944037;29;20462;-76
2022/08/04 02:29:00;;;;;;;5.67;2.20;;;29.40;66.20;;;;;;4955515;28;20427;-76
2022/08/04 02:31:32;;;;;;;5.20;1.87;;;29.50;66.30;;;;;;4953953;28;20494;-76
2022/08/04 02:34:07;;;;;;;3.53;1.93;;;29.40;66.20;;;;;;4938392;29;20441;-76
2022/08/04 02:36:42;;;;;;;4.67;2.00;;;29.40;66.20;;;;;;4954199;29;20443;-75
2022/08/04 02:39:12;;;;;;;4.10;1.77;;;29.40;66.20;;;;;;4955062;28;20403;-75
2022/08/04 02:41:39;;;;;;;3.00;2.03;;;29.40;66.30;;;;;;4954172;28;20455;-76
2022/08/04 02:44:09;;;;;;;3.73;1.90;;;29.40;66.40;;;;;;4955328;28;20510;-76
2022/08/04 02:46:37;;;;;;;4.23;2.00;;;29.30;66.30;;;;;;4970215;28;20462;-76
2022/08/04 02:49:12;;;;;;;2.43;1.67;;;29.40;66.30;;;;;;4954133;29;20427;-76
2022/08/04 02:51:47;;;;;;;2.90;1.90;;;29.30;66.30;;;;;;4954229;28;20469;-76
2022/08/04 02:54:16;;;;;;;4.30;2.23;;;29.30;66.30;;;;;;4957709;29;20398;-76
2022/08/04 02:56:46;;;;;;;2.90;1.80;;;29.30;66.30;;;;;;4959101;28;20412;-76
2022/08/04 02:59:24;;;;;;;2.60;1.53;;;29.30;66.30;;;;;;4942406;29;20423;-76
2022/08/04 03:01:56;;;;;;;4.40;2.20;;;29.30;66.30;;;;;;4941532;29;20441;-76
2022/08/04 03:04:42;;;;;;;5.30;1.73;;;29.30;66.40;;;;;;4957599;29;20427;-76
2022/08/04 03:07:47;;;;;;;3.13;1.97;;;29.20;66.30;;;;;;4926910;29;20439;-76
2022/08/04 03:10:43;;;;;;;4.40;1.80;;;29.20;66.40;;;;;;4939666;29;20412;-76
2022/08/04 03:13:35;;;;;;;4.07;2.20;;;29.20;66.50;;;;;;4922667;29;20424;-76
2022/08/04 03:16:39;;;;;;;3.77;1.73;;;29.10;66.40;;;;;;4954296;29;20408;-75
2022/08/04 03:19:40;;;;;;;2.97;2.30;;;29.10;66.50;;;;;;4939360;29;20435;-76
2022/08/04 03:22:25;;;;;;;3.53;1.83;;;29.10;66.50;;;;;;4910051;29;20470;-76
2022/08/04 03:25:03;;;;;;;3.73;2.57;;;29.10;66.60;;;;;;4962772;28;20482;-73
2022/08/04 03:28:06;;;;;;;2.90;1.80;;;29.10;66.60;;;;;;4957428;29;20422;-73
2022/08/04 03:30:41;;;;;;;4.60;1.87;;;29.10;66.60;;;;;;4956734;29;20434;-73
2022/08/04 03:33:33;;;;;;;4.27;1.70;;;29.00;66.60;;;;;;4956897;29;20411;-73
2022/08/04 03:36:13;;;;;;;3.80;2.00;;;29.00;66.70;;;;;;4947590;29;20482;-73
2022/08/04 03:39:03;;;;;;;4.90;2.30;;;29.00;66.70;;;;;;4956439;29;20399;-72
2022/08/04 03:42:31;;;;;;;10.63;2.30;;;29.00;66.80;;;;;;4956603;29;20611;-73
2022/08/04 03:45:18;;;;;;;4.03;1.97;;;28.90;66.80;;;;;;4898672;29;20446;-73
2022/08/04 03:48:05;;;;;;;4.30;2.40;;;28.90;66.90;;;;;;4898515;29;20437;-72
2022/08/04 03:50:46;;;;;;;2.40;2.10;;;28.90;66.90;;;;;;4882976;29;20450;-72
2022/08/04 03:53:45;;;;;;;4.83;2.67;;;28.90;67.00;;;;;;4898566;29;20944;-72
2022/08/04 03:56:28;;;;;;;3.63;2.07;;;28.90;67.10;;;;;;4883119;29;20453;-73
2022/08/04 03:59:21;;;;;;;3.40;1.90;;;28.90;67.10;;;;;;4882786;29;20417;-72
2022/08/04 04:02:20;;;;;;;3.43;1.80;;;28.80;67.10;;;;;;4899881;29;20485;-72
2022/08/04 04:04:57;;;;;;;3.10;2.03;;;28.80;67.20;;;;;;4916168;29;20472;-73
2022/08/04 04:07:50;;;;;;;5.50;2.43;;;28.80;67.20;;;;;;4901536;29;20464;-73
2022/08/04 04:10:47;;;;;;;4.97;2.20;;;28.80;67.30;;;;;;4901548;29;20576;-73
2022/08/04 04:13:44;;;;;;;5.10;2.10;;;28.80;67.30;;;;;;4885669;29;20981;-72
2022/08/04 04:16:47;;;;;;;4.20;2.27;;;28.70;67.30;;;;;;4920125;29;20971;-73
2022/08/04 04:19:50;;;;;;;4.07;2.13;;;28.70;67.30;;;;;;4957015;28;20410;-72
2022/08/04 04:22:53;;;;;;;2.83;1.80;;;28.70;67.40;;;;;;4972280;28;20782;-72
2022/08/04 04:25:30;;;;;;;3.80;2.07;;;28.60;68.10;;;;;;4956831;28;20415;-73
2022/08/04 04:28:29;;;;;;;4.60;2.00;;;28.70;67.50;;;;;;4957028;28;20438;-73
2022/08/04 04:31:21;;;;;;;5.23;2.30;;;28.60;67.40;;;;;;4956846;28;20458;-72
2022/08/04 04:34:05;;;;;;;5.50;2.10;;;28.60;67.40;;;;;;4956795;29;20475;-72
2022/08/04 04:36:39;;;;;;;5.27;2.30;;;28.60;67.50;;;;;;4971661;28;20414;-72
2022/08/04 04:39:31;;;;;;;2.80;1.90;;;28.60;67.50;;;;;;4955740;29;20415;-72
2022/08/04 04:42:08;;;;;;;4.60;2.20;;;28.50;67.50;;;;;;4956726;28;20435;-72
2022/08/04 04:44:54;;;;;;;7.30;2.13;;;28.50;67.50;;;;;;4971556;28;20414;-72
2022/08/04 04:47:55;;;;;;;3.13;2.07;;;28.50;67.50;;;;;;4971608;28;20900;-72
2022/08/04 04:50:41;;;;;;;3.73;2.50;;;28.50;67.60;;;;;;4935095;29;20439;-72
2022/08/04 04:53:36;;;;;;;4.20;2.20;;;28.50;67.60;;;;;;4952438;29;20928;-72
2022/08/04 04:56:13;;;;;;;3.63;2.37;;;28.50;67.60;;;;;;4936171;29;20922;-72
2022/08/04 04:58:44;;;;;;;3.83;2.17;;;28.40;67.60;;;;;;4968326;28;20400;-72
2022/08/04 05:01:15;;;;;;;4.60;2.27;;;28.40;67.60;;;;;;4936259;29;20538;-73
2022/08/04 05:04:02;;;;;;;3.50;2.10;;;28.40;68.60;;;;;;4952204;29;20964;-73
2022/08/04 05:07:20;;;;;;;6.17;2.70;;;28.40;67.70;;;;;;4952114;29;20451;-73
2022/08/04 05:09:48;;;;;;;2.53;2.23;;;28.40;67.80;;;;;;4892632;29;20454;-77
2022/08/04 05:12:44;;;;;;;5.23;2.40;;;28.40;67.90;;;;;;4954888;28;20474;-75
2022/08/04 05:15:12;;;;;;;5.63;2.37;;;28.40;67.90;;;;;;4953495;28;20226;-75
2022/08/04 05:17:48;;;;;;;3.30;1.70;;;28.30;67.80;;;;;;4935848;29;20432;-75
2022/08/04 05:20:24;;;;;;;5.83;2.37;;;28.30;67.80;;;;;;4938960;29;20783;-75
2022/08/04 05:22:56;;;;;;;4.57;2.50;;;28.30;67.90;;;;;;4968958;28;20446;-75
2022/08/04 05:25:22;;;;;;;3.07;2.40;;;28.30;68.00;;;;;;4938655;29;20426;-73
2022/08/04 05:28:06;;;;;;;5.93;2.30;;;28.30;68.00;;;;;;4956409;28;20452;-72
2022/08/04 05:30:37;;;;;;;4.60;1.93;;;28.20;67.90;;;;;;4956081;28;20419;-73
2022/08/04 05:33:12;;;;;;;4.27;2.10;;;28.30;68.00;;;;;;4921220;29;20515;-72
2022/08/04 05:35:59;;;;;;;4.97;2.53;;;28.20;68.00;;;;;;4935560;29;20415;-73
2022/08/04 05:38:29;;;;;;;4.47;2.33;;;28.20;68.00;;;;;;4935571;29;20419;-72
2022/08/04 05:40:56;;;;;;;4.03;2.17;;;28.20;68.10;;;;;;4935436;29;20452;-73
2022/08/04 05:43:23;;;;;;;2.97;2.10;;;28.20;68.10;;;;;;4938314;29;20427;-73
2022/08/04 05:45:54;;;;;;;3.20;2.37;;;28.20;68.10;;;;;;4954584;29;20427;-73
2022/08/04 05:48:25;;;;;;;4.93;2.80;;;28.20;68.10;;;;;;4954631;29;20470;-72
2022/08/04 05:50:52;;;;;;;4.40;2.47;;;28.20;68.20;;;;;;4954579;29;20467;-73
2022/08/04 05:53:20;;;;;;;5.80;2.70;;;28.20;68.20;;;;;;4970273;28;20463;-72
2022/08/04 05:55:52;;;;;;;4.70;2.80;;;28.10;68.20;;;;;;4955428;28;20744;-73
2022/08/04 05:58:19;;;;;;;4.50;2.63;;;28.20;68.30;;;;;;4922107;29;20451;-73
2022/08/04 06:00:49;;;;;;;3.30;2.80;;;28.20;68.30;;;;;;4954162;29;20489;-72
2022/08/04 06:03:22;;;;;;;3.03;2.73;;;28.10;68.30;;;;;;4954166;29;20407;-72
2022/08/04 06:05:53;;;;;;;5.13;2.10;;;28.20;68.40;;;;;;4955153;28;20533;-72
2022/08/04 06:08:24;;;;;;;5.60;3.00;;;28.10;68.30;;;;;;4938529;29;20422;-72
2022/08/04 06:10:54;;;;;;;3.77;2.63;;;28.10;68.30;;;;;;4938197;29;20551;-72
2022/08/04 06:13:29;;;;;;;4.07;2.80;;;28.10;68.40;;;;;;4954593;29;20739;-73
2022/08/04 06:16:00;;;;;;;4.30;2.40;;;28.10;68.40;;;;;;4955232;28;20407;-72
2022/08/04 06:18:34;;;;;;;4.73;2.53;;;28.10;68.40;;;;;;4938284;29;20908;-73
2022/08/04 06:21:06;;;;;;;5.63;2.70;;;28.10;68.40;;;;;;4969706;28;20801;-73
2022/08/04 06:23:41;;;;;;;6.10;2.60;;;28.00;68.40;;;;;;4955136;29;20396;-73
2022/08/04 06:26:18;;;;;;;3.23;2.50;;;28.00;68.40;;;;;;4969556;28;20423;-73
2022/08/04 06:28:50;;;;;;;3.67;2.93;;;28.10;68.40;;;;;;4955013;28;20813;-72
2022/08/04 06:34:09;;;;;;;3.97;2.50;;;28.00;68.40;;;;;;4943993;28;20451;-73
2022/08/04 06:36:37;;;;;;;2.93;2.30;;;28.00;68.40;;;;;;4935118;29;20416;-72
2022/08/04 06:39:05;;;;;;;3.87;2.93;;;28.00;69.20;;;;;;4954098;29;20403;-73
2022/08/04 06:41:31;;;;;;;3.27;2.50;;;28.00;68.40;;;;;;4953836;28;20531;-73
2022/08/04 06:44:01;;;;;;;7.20;2.90;;;28.00;68.40;;;;;;4970219;28;20544;-72
2022/08/04 06:46:31;;;;;;;4.63;2.97;;;28.00;68.40;;;;;;4954893;28;20427;-72
2022/08/04 06:48:58;;;;;;;3.00;2.40;;;28.00;68.40;;;;;;4922059;29;20423;-72
2022/08/04 06:51:24;;;;;;;4.27;3.27;;;28.00;68.30;;;;;;4953485;28;20471;-73
2022/08/04 06:53:55;;;;;;;4.53;2.90;;;28.00;68.30;;;;;;4954077;29;20423;-73
2022/08/04 06:56:26;;;;;;;3.77;2.80;;;28.00;68.20;;;;;;4970116;28;20404;-73
2022/08/04 06:58:55;;;;;;;3.67;2.60;;;28.00;68.20;;;;;;4953979;29;20455;-73
2022/08/04 07:01:23;;;;;;;3.13;2.80;;;28.00;68.10;;;;;;4953574;28;20438;-73
2022/08/04 07:03:51;;;;;;;2.80;2.57;;;28.00;68.10;;;;;;4954314;28;20882;-73
2022/08/04 07:06:25;;;;;;;5.70;3.00;;;28.00;68.00;;;;;;4953512;29;20877;-73
2022/08/04 07:08:55;;;;;;;2.97;2.77;;;28.00;67.90;;;;;;4969573;28;20507;-73
2022/08/04 07:11:26;;;;;;;3.00;2.80;;;28.10;67.90;;;;;;4937900;29;20521;-73
2022/08/04 07:13:55;;;;;;;3.97;3.07;;;28.10;67.70;;;;;;4954648;28;20419;-73
2022/08/04 07:16:22;;;;;;;5.90;3.00;;;28.10;67.70;;;;;;4953595;29;20451;-73
2022/08/04 07:18:48;;;;;;;2.50;2.30;;;28.10;67.60;;;;;;4953601;29;20951;-73
2022/08/04 07:21:22;;;;;;;3.50;2.93;;;28.10;67.60;;;;;;4953548;29;20956;-73
2022/08/04 07:23:50;;;;;;;3.67;3.30;;;28.10;67.50;;;;;;4954681;28;20421;-73
2022/08/04 07:26:18;;;;;;;3.57;3.10;;;28.10;67.40;;;;;;4937649;29;20423;-73
2022/08/04 07:28:45;;;;;;;3.67;2.97;;;28.10;67.40;;;;;;4954459;28;20411;-73
2022/08/04 07:31:22;;;;;;;3.70;3.30;;;28.10;67.30;;;;;;4954286;28;20470;-73
2022/08/04 07:33:49;;;;;;;4.67;3.27;;;28.10;67.30;;;;;;4953437;29;20439;-73
2022/08/04 07:36:17;;;;;;;3.37;2.87;;;28.10;67.20;;;;;;4953516;29;20817;-73
2022/08/04 07:38:44;;;;;;;3.67;3.00;;;28.20;67.30;;;;;;4954922;28;20411;-73
2022/08/04 07:41:15;;;;;;;4.17;3.80;;;28.20;67.30;;;;;;4956119;28;20430;-72
2022/08/04 07:43:44;;;;;;;3.80;3.50;;;28.20;67.30;;;;;;4937529;29;20514;-73
2022/08/04 07:46:15;;;;;;;4.47;3.20;;;28.20;67.20;;;;;;4938750;29;20528;-73
2022/08/04 07:48:43;;;;;;;4.70;3.43;;;28.20;67.30;;;;;;4937578;29;20945;-72
2022/08/04 07:51:12;;;;;;;3.67;3.23;;;28.20;68.00;;;;;;4938149;29;20486;-72
2022/08/04 07:53:41;;;;;;;3.90;2.80;;;28.20;67.20;;;;;;4952792;29;20407;-72
2022/08/04 07:56:12;;;;;;;4.80;3.63;;;28.20;67.20;;;;;;4938450;29;20479;-73
2022/08/04 07:58:43;;;;;;;3.67;3.37;;;28.30;67.30;;;;;;4938404;29;20411;-73
2022/08/04 08:01:20;;;;;;;4.07;3.73;;;28.30;67.30;;;;;;4938344;29;20467;-73
2022/08/04 08:03:49;;;;;;;3.60;3.30;;;28.30;67.30;;;;;;4922020;29;20439;-72
2022/08/04 08:06:18;;;;;;;3.30;3.00;;;28.30;67.30;;;;;;4951454;29;20781;-72
2022/08/04 08:08:48;;;;;;;3.50;3.20;;;28.30;67.30;;;;;;4935380;29;20467;-71
2022/08/04 08:11:16;;;;;;;4.57;3.57;;;28.30;67.30;;;;;;4935426;29;20547;-72
2022/08/04 08:13:44;;;;;;;4.80;3.20;;;28.30;67.30;;;;;;4936510;29;20419;-71
2022/08/04 08:16:11;;;;;;;3.60;3.30;;;28.30;67.30;;;;;;4951024;29;20472;-72
2022/08/04 08:18:42;;;;;;;4.03;3.50;;;28.30;67.40;;;;;;4936764;29;20416;-71
2022/08/04 08:21:08;;;;;;;4.10;3.20;;;28.30;67.40;;;;;;4938989;29;20507;-71
2022/08/04 08:23:37;;;;;;;5.03;4.10;;;28.40;67.50;;;;;;4972007;28;20404;-71
2022/08/04 08:26:07;;;;;;;4.10;3.47;;;28.40;67.50;;;;;;4956950;29;20422;-71
2022/08/04 08:28:33;;;;;;;3.73;3.30;;;28.40;67.50;;;;;;4957066;28;20446;-72
2022/08/04 08:31:00;;;;;;;4.33;3.10;;;28.40;67.60;;;;;;4956764;28;20466;-71
2022/08/04 08:33:26;;;;;;;5.10;3.60;;;28.40;67.60;;;;;;4961119;28;20477;-71
2022/08/04 08:36:13;;;;;;;4.67;3.60;;;28.40;67.60;;;;;;4943336;28;20846;-71
2022/08/04 08:39:27;;;;;;;4.33;3.17;;;28.50;67.70;;;;;;4974851;28;20438;-71
2022/08/04 08:42:12;;;;;;;4.13;3.50;;;28.50;67.80;;;;;;4919670;29;21060;-71
2022/08/04 08:45:13;;;;;;;5.03;3.83;;;28.50;67.80;;;;;;4904447;29;20844;-71
2022/08/04 08:48:15;;;;;;;7.33;3.70;;;28.50;67.70;;;;;;4900431;29;20498;-72
2022/08/04 08:50:58;;;;;;;6.70;3.60;;;28.50;67.60;;;;;;4844267;29;20437;-71
2022/08/04 08:54:10;;;;;;;3.53;3.23;;;28.60;67.60;;;;;;4900006;29;20468;-71
2022/08/04 08:57:12;;;;;;;4.63;3.33;;;28.60;67.50;;;;;;4964300;23;20504;-75
2022/08/04 09:00:13;;;;;;;4.73;3.10;;;28.60;67.30;;;;;;4912450;29;20968;-75
2022/08/04 09:03:01;;;;;;;3.90;3.60;;;28.60;67.30;;;;;;4880074;29;21017;-76
2022/08/04 09:05:56;;;;;;;5.27;4.00;;;28.70;67.50;;;;;;4894075;29;20470;-75
2022/08/04 09:08:50;;;;;;;5.10;3.43;;;28.70;67.50;;;;;;4878501;29;20850;-75
2022/08/04 09:11:22;;;;;;;3.20;3.00;;;28.70;67.40;;;;;;4897091;29;20803;-75
2022/08/04 09:14:04;;;;;;;4.00;3.70;;;28.70;67.40;;;;;;4880727;29;20485;-75
2022/08/04 09:16:42;;;;;;;3.77;3.47;;;28.80;67.40;;;;;;4890381;29;20817;-75
2022/08/04 09:19:22;;;;;;;3.60;3.23;;;28.80;67.20;;;;;;4865463;29;20442;-75
2022/08/04 09:22:08;;;;;;;5.63;3.43;;;28.80;67.10;;;;;;4897706;29;20798;-75
2022/08/04 09:24:43;;;;;;;3.80;3.33;;;28.80;67.10;;;;;;4912259;29;20454;-76
2022/08/04 09:27:21;;;;;;;4.47;3.73;;;28.90;67.10;;;;;;4896220;29;20493;-75
2022/08/04 09:30:05;;;;;;;5.63;3.40;;;28.90;67.10;;;;;;4893226;29;20805;-76
2022/08/04 09:32:37;;;;;;;9.83;3.90;;;28.90;67.00;;;;;;4882702;29;20565;-76
2022/08/04 09:35:41;;;;;;;7.37;3.97;;;28.90;67.10;;;;;;4896884;29;20935;-76
2022/08/04 09:38:50;;;;;;;4.70;3.90;;;28.90;67.00;;;;;;4897034;29;20461;-75
2022/08/04 09:41:25;;;;;;;5.10;3.50;;;29.00;67.10;;;;;;4927148;29;20449;-75
2022/08/04 09:44:12;;;;;;;4.33;3.70;;;29.00;67.20;;;;;;4899516;29;20428;-75
2022/08/04 09:47:03;;;;;;;4.97;3.93;;;29.00;67.10;;;;;;4895670;29;20484;-75
2022/08/04 09:49:54;;;;;;;5.20;3.90;;;29.00;67.10;;;;;;4877118;29;20438;-75
2022/08/04 09:52:27;;;;;;;5.83;3.93;;;29.00;67.00;;;;;;4895429;29;20462;-75
2022/08/04 09:54:53;;;;;;;7.03;3.37;;;29.10;67.20;;;;;;4896692;29;20972;-75
2022/08/04 09:57:37;;;;;;;3.90;3.60;;;29.10;67.30;;;;;;4895670;29;20501;-75
2022/08/04 10:00:06;;;;;;;7.27;3.60;;;29.10;67.20;;;;;;4910886;29;20442;-75
2022/08/04 10:02:49;;;;;;;6.43;4.20;;;29.10;67.20;;;;;;4894283;29;20461;-75
2022/08/04 10:05:24;;;;;;;4.10;3.80;;;29.20;67.20;;;;;;4895671;29;20582;-75
2022/08/04 10:08:14;;;;;;;4.00;3.70;;;29.20;67.20;;;;;;4910980;29;20480;-75
2022/08/04 10:11:02;;;;;;;4.70;3.70;;;29.30;67.20;;;;;;4896251;29;20437;-75
2022/08/04 10:14:03;;;;;;;6.60;3.80;;;29.30;67.10;;;;;;4889871;29;20468;-75
2022/08/04 10:16:53;;;;;;;5.10;3.70;;;29.30;66.90;;;;;;4898529;29;20516;-79
2022/08/04 10:19:28;;;;;;;4.93;2.93;;;29.40;66.90;;;;;;4851864;29;20452;-72
2022/08/04 10:22:23;;;;;;;5.80;3.70;;;29.40;66.70;;;;;;4880581;29;20481;-73
2022/08/04 10:25:26;;;;;;;3.83;3.37;;;29.40;66.70;;;;;;4894883;29;20925;-73
2022/08/04 10:27:57;;;;;;;7.80;3.70;;;29.50;66.70;;;;;;4876052;29;20447;-76
2022/08/04 10:30:27;;;;;;;4.83;3.57;;;29.50;66.60;;;;;;4880857;29;20438;-75
2022/08/04 10:33:32;;;;;;;4.20;3.30;;;29.50;66.50;;;;;;4885483;29;20469;-76
2022/08/04 10:36:08;;;;;;;6.63;3.10;;;29.60;66.50;;;;;;4811436;29;21037;-74
2022/08/04 10:38:56;;;;;;;5.90;3.40;;;29.60;66.60;;;;;;4874553;29;20501;-74
2022/08/04 10:41:46;;;;;;;3.17;2.87;;;29.60;66.50;;;;;;4898357;29;20448;-74
2022/08/04 10:44:24;;;;;;;5.23;3.00;;;29.60;66.50;;;;;;4892060;29;20427;-74
2022/08/04 10:46:55;;;;;;;4.50;3.63;;;29.70;66.50;;;;;;4893317;29;20442;-74
2022/08/04 10:49:41;;;;;;;5.50;3.00;;;29.70;66.30;;;;;;4893804;29;20415;-74
2022/08/04 10:52:23;;;;;;;7.43;3.10;;;29.70;66.10;;;;;;4879254;29;20470;-76
2022/08/04 10:55:17;;;;;;;6.10;3.90;;;29.70;65.90;;;;;;4915539;29;20433;-76
2022/08/04 10:57:50;;;;;;;3.23;2.93;;;29.80;65.70;;;;;;4888543;29;20489;-76
2022/08/04 11:00:26;;;;;;;3.43;3.13;;;29.80;65.50;;;;;;4877613;29;20501;-76
2022/08/04 11:03:14;;;;;;;4.10;2.93;;;29.80;65.20;;;;;;4908451;29;20445;-76
2022/08/04 11:06:05;;;;;;;4.90;3.07;;;29.90;66.00;;;;;;4892698;29;20533;-75
2022/08/04 11:08:44;;;;;;;5.27;3.70;;;29.90;65.10;;;;;;4878175;29;20426;-75
2022/08/04 11:11:37;;;;;;;3.40;2.67;;;29.90;65.10;;;;;;4896122;29;20512;-75
2022/08/04 11:14:17;;;;;;;3.33;3.00;;;29.90;65.20;;;;;;4867854;29;20438;-77
2022/08/04 11:16:50;;;;;;;4.63;3.70;;;30.00;65.00;;;;;;4915363;29;21012;-75
2022/08/04 11:19:48;;;;;;;3.97;3.57;;;30.00;65.10;;;;;;4915310;29;20457;-73
2022/08/04 11:22:24;;;;;;;4.70;3.23;;;30.00;65.00;;;;;;4892069;29;20496;-73
2022/08/04 11:25:18;;;;;;;3.30;2.63;;;30.00;64.50;;;;;;4910317;29;20456;-74
2022/08/04 11:28:13;;;;;;;5.87;2.90;;;30.10;64.50;;;;;;4911671;29;20893;-73
2022/08/04 11:31:03;;;;;;;4.00;3.47;;;30.10;64.50;;;;;;4899168;29;20425;-73
2022/08/04 11:33:58;;;;;;;3.63;3.30;;;30.10;64.50;;;;;;4898817;29;20446;-73
2022/08/04 11:36:47;;;;;;;10.97;3.20;;;30.20;64.70;;;;;;4899124;29;20493;-73
2022/08/04 11:39:22;;;;;;;4.77;3.50;;;30.20;64.70;;;;;;4900626;29;20478;-73
2022/08/04 11:41:55;;;;;;;7.47;3.60;;;30.20;64.70;;;;;;4899028;29;21002;-75
2022/08/04 11:45:03;;;;;;;3.97;3.57;;;30.20;64.70;;;;;;4899624;29;20543;-74
2022/08/04 11:48:04;;;;;;;3.50;3.17;;;30.20;64.90;;;;;;4900019;29;20464;-74
2022/08/04 11:50:37;;;;;;;5.23;3.20;;;30.20;64.90;;;;;;4898650;29;20487;-74
2022/08/04 11:53:08;;;;;;;4.43;3.10;;;30.20;64.80;;;;;;4911375;29;21023;-74
2022/08/04 11:55:37;;;;;;;5.27;3.00;;;30.30;64.90;;;;;;4899227;29;20509;-74
2022/08/04 11:58:09;;;;;;;3.30;2.67;;;30.30;64.70;;;;;;4899719;29;20429;-74
2022/08/04 12:00:41;;;;;;;3.90;2.83;;;30.30;64.70;;;;;;4903090;29;20417;-74
2022/08/04 12:03:28;;;;;;;5.53;3.03;;;30.30;64.80;;;;;;4911530;29;20430;-74
2022/08/04 12:06:11;;;;;;;3.93;3.07;;;30.30;64.80;;;;;;4894604;29;20483;-74
2022/08/04 12:09:11;;;;;;;3.60;3.30;;;30.30;64.80;;;;;;4895405;29;20418;-74
2022/08/04 12:12:19;;;;;;;3.50;2.67;;;30.30;64.90;;;;;;4885046;29;20552;-74
2022/08/04 12:14:56;;;;;;;3.07;2.77;;;30.30;65.00;;;;;;4889508;29;20438;-75
2022/08/04 12:17:50;;;;;;;3.70;3.40;;;30.30;65.00;;;;;;4890940;29;21030;-74
2022/08/04 12:20:22;;;;;;;5.60;3.30;;;30.30;65.00;;;;;;4898543;29;20818;-74
2022/08/04 12:22:50;;;;;;;3.20;2.73;;;30.40;65.20;;;;;;4895128;29;20471;-74
2022/08/04 12:25:29;;;;;;;3.30;2.77;;;30.40;65.30;;;;;;4870253;29;20449;-74
2022/08/04 12:28:05;;;;;;;3.30;2.97;;;30.40;66.10;;;;;;4898596;29;20438;-74
2022/08/04 12:30:41;;;;;;;3.57;3.23;;;30.40;65.30;;;;;;4899464;29;20429;-74
2022/08/04 12:33:23;;;;;;;4.40;3.20;;;30.40;65.30;;;;;;4897167;29;20476;-74
2022/08/04 12:36:01;;;;;;;4.00;3.17;;;30.40;65.30;;;;;;4897873;29;20980;-74
2022/08/04 12:38:32;;;;;;;3.23;2.93;;;30.40;65.30;;;;;;4905711;29;20454;-74
2022/08/04 12:41:02;;;;;;;5.30;3.13;;;30.40;65.40;;;;;;4879652;29;20446;-74
2022/08/04 12:43:38;;;;;;;3.57;3.27;;;30.40;65.30;;;;;;4880562;29;20435;-73
2022/08/04 12:46:23;;;;;;;3.07;2.77;;;30.50;65.40;;;;;;4879720;29;20538;-74
2022/08/04 12:48:49;;;;;;;3.83;2.90;;;30.50;65.30;;;;;;4894596;29;20454;-74
2022/08/04 12:51:19;;;;;;;4.60;3.03;;;30.50;65.30;;;;;;4911397;29;21009;-74
2022/08/04 12:53:50;;;;;;;3.27;2.97;;;30.50;65.30;;;;;;4897157;29;20429;-74
2022/08/04 12:56:22;;;;;;;7.67;3.00;;;30.60;65.40;;;;;;4894781;29;20462;-74
2022/08/04 12:58:59;;;;;;;8.33;4.00;;;30.60;65.40;;;;;;4894840;29;20976;-74
2022/08/04 13:01:29;;;;;;;3.50;3.20;;;30.60;65.40;;;;;;4912234;29;20457;-74
2022/08/04 13:03:57;;;;;;;5.60;3.53;;;30.60;65.30;;;;;;4898736;29;20476;-74
2022/08/04 13:06:30;;;;;;;4.37;3.20;;;30.60;65.30;;;;;;4910228;29;20418;-73
2022/08/04 13:09:28;;;;;;;5.90;3.40;;;30.60;65.40;;;;;;4913071;29;20457;-74
2022/08/04 13:12:05;;;;;;;4.67;3.67;;;30.60;65.50;;;;;;4897606;29;20852;-74
2022/08/04 13:14:36;;;;;;;5.60;4.40;;;30.70;65.50;;;;;;4897801;29;20931;-76
2022/08/04 13:17:07;;;;;;;4.60;4.00;;;30.70;65.50;;;;;;4896400;29;20453;-76
2022/08/04 13:19:36;;;;;;;3.60;3.07;;;30.70;65.40;;;;;;4899398;29;20464;-75
2022/08/04 13:22:04;;;;;;;4.03;3.17;;;30.70;65.40;;;;;;4908101;29;20458;-74
2022/08/04 13:24:32;;;;;;;5.20;3.17;;;30.70;65.30;;;;;;4897852;29;20425;-74
2022/08/04 13:27:07;;;;;;;4.13;3.50;;;30.70;65.20;;;;;;4896374;29;20926;-74
2022/08/04 13:29:44;;;;;;;7.20;3.70;;;30.70;65.20;;;;;;4897732;29;20896;-74
2022/08/04 13:32:14;;;;;;;3.63;3.33;;;30.70;65.20;;;;;;4897648;29;20512;-74
2022/08/04 13:34:51;;;;;;;4.77;3.80;;;30.70;65.20;;;;;;4893036;29;20461;-76
2022/08/04 13:37:25;;;;;;;3.90;3.47;;;30.70;65.20;;;;;;4877654;29;20474;-76
2022/08/04 13:39:55;;;;;;;4.30;3.70;;;30.80;65.30;;;;;;4893060;29;20510;-76
2022/08/04 13:42:22;;;;;;;4.30;3.53;;;30.80;65.40;;;;;;4883527;29;20450;-76
2022/08/04 13:44:54;;;;;;;3.33;3.03;;;30.80;65.40;;;;;;4912052;29;20955;-76
2022/08/04 13:47:32;;;;;;;5.83;3.63;;;30.80;65.40;;;;;;4906038;29;20488;-76
2022/08/04 13:50:31;;;;;;;4.60;3.20;;;30.80;65.40;;;;;;4907629;29;20426;-76
2022/08/04 13:53:04;;;;;;;3.80;3.37;;;30.80;65.40;;;;;;4892615;29;20471;-76
2022/08/04 13:55:36;;;;;;;5.43;3.97;;;30.80;65.50;;;;;;4907073;29;20434;-76